sensor_id;sensor_type;location;lat;lon;timestamp;P1;durP1;ratioP1;P2;durP2;ratioP2
47219;SDS011;32961;51.936;4.788;2023-07-20T00:01:10;9.05;;;5.65;;
47219;SDS011;32961;51.936;4.788;2023-07-20T00:03:38;9.38;;;5.75;;
47219;SDS011;32961;51.936;4.788;2023-07-20T00:06:07;11.52;;;6.38;;
47219;SDS011;32961;51.936;4.788;2023-07-20T00:08:35;8.98;;;6.45;;
47219;SDS011;32961;51.936;4.788;2023-07-20T00:11:03;10.77;;;7.03;;
47219;SDS011;32961;51.936;4.788;2023-07-20T00:13:33;11.90;;;7.05;;
47219;SDS011;32961;51.936;4.788;2023-07-20T00:16:01;14.38;;;8.07;;
47219;SDS011;32961;51.936;4.788;2023-07-20T00:18:28;11.98;;;8.48;;
47219;SDS011;32961;51.936;4.788;2023-07-20T00:20:56;17.13;;;8.05;;
47219;SDS011;32961;51.936;4.788;2023-07-20T00:23:26;8.57;;;6.95;;
47219;SDS011;32961;51.936;4.788;2023-07-20T00:25:54;11.23;;;7.57;;
47219;SDS011;32961;51.936;4.788;2023-07-20T00:28:22;7.68;;;6.80;;
47219;SDS011;32961;51.936;4.788;2023-07-20T00:30:51;11.93;;;8.15;;
47219;SDS011;32961;51.936;4.788;2023-07-20T00:33:19;9.85;;;7.10;;
47219;SDS011;32961;51.936;4.788;2023-07-20T00:35:47;9.05;;;6.55;;
47219;SDS011;32961;51.936;4.788;2023-07-20T00:38:14;9.35;;;6.25;;
47219;SDS011;32961;51.936;4.788;2023-07-20T00:40:42;8.88;;;6.25;;
47219;SDS011;32961;51.936;4.788;2023-07-20T00:43:10;10.45;;;6.13;;
47219;SDS011;32961;51.936;4.788;2023-07-20T00:45:38;11.75;;;6.78;;
47219;SDS011;32961;51.936;4.788;2023-07-20T00:48:07;9.85;;;5.93;;
47219;SDS011;32961;51.936;4.788;2023-07-20T00:50:36;9.05;;;5.43;;
47219;SDS011;32961;51.936;4.788;2023-07-20T00:53:04;8.82;;;5.80;;
47219;SDS011;32961;51.936;4.788;2023-07-20T00:55:32;8.43;;;6.10;;
47219;SDS011;32961;51.936;4.788;2023-07-20T00:58:01;7.75;;;5.45;;
47219;SDS011;32961;51.936;4.788;2023-07-20T01:00:29;6.40;;;5.68;;
47219;SDS011;32961;51.936;4.788;2023-07-20T01:02:57;7.05;;;5.70;;
47219;SDS011;32961;51.936;4.788;2023-07-20T01:05:27;7.00;;;4.97;;
47219;SDS011;32961;51.936;4.788;2023-07-20T01:08:06;6.38;;;5.10;;
47219;SDS011;32961;51.936;4.788;2023-07-20T01:10:39;8.13;;;5.30;;
47219;SDS011;32961;51.936;4.788;2023-07-20T01:13:11;6.28;;;4.85;;
47219;SDS011;32961;51.936;4.788;2023-07-20T01:15:41;6.82;;;5.32;;
47219;SDS011;32961;51.936;4.788;2023-07-20T01:18:09;8.23;;;4.90;;
47219;SDS011;32961;51.936;4.788;2023-07-20T01:20:38;7.25;;;5.25;;
47219;SDS011;32961;51.936;4.788;2023-07-20T01:23:21;5.25;;;4.15;;
47219;SDS011;32961;51.936;4.788;2023-07-20T01:26:08;6.03;;;4.07;;
47219;SDS011;32961;51.936;4.788;2023-07-20T01:29:04;5.47;;;3.65;;
47219;SDS011;32961;51.936;4.788;2023-07-20T01:31:46;4.18;;;3.58;;
47219;SDS011;32961;51.936;4.788;2023-07-20T01:34:17;5.22;;;3.40;;
47219;SDS011;32961;51.936;4.788;2023-07-20T01:36:46;4.43;;;3.10;;
47219;SDS011;32961;51.936;4.788;2023-07-20T01:39:18;8.27;;;3.55;;
47219;SDS011;32961;51.936;4.788;2023-07-20T01:41:46;18.92;;;3.65;;
47219;SDS011;32961;51.936;4.788;2023-07-20T01:44:15;3.65;;;2.80;;
47219;SDS011;32961;51.936;4.788;2023-07-20T01:46:43;3.92;;;2.85;;
47219;SDS011;32961;51.936;4.788;2023-07-20T01:49:12;4.88;;;2.90;;
47219;SDS011;32961;51.936;4.788;2023-07-20T01:51:42;5.70;;;2.75;;
47219;SDS011;32961;51.936;4.788;2023-07-20T01:54:09;3.60;;;2.80;;
47219;SDS011;32961;51.936;4.788;2023-07-20T01:56:37;4.30;;;2.63;;
47219;SDS011;32961;51.936;4.788;2023-07-20T01:59:05;5.95;;;3.15;;
47219;SDS011;32961;51.936;4.788;2023-07-20T02:01:33;4.28;;;2.70;;
47219;SDS011;32961;51.936;4.788;2023-07-20T02:04:01;4.38;;;2.70;;
47219;SDS011;32961;51.936;4.788;2023-07-20T02:06:30;5.65;;;2.83;;
47219;SDS011;32961;51.936;4.788;2023-07-20T02:08:58;4.15;;;2.83;;
47219;SDS011;32961;51.936;4.788;2023-07-20T02:11:27;3.45;;;2.83;;
47219;SDS011;32961;51.936;4.788;2023-07-20T02:13:55;3.28;;;2.55;;
47219;SDS011;32961;51.936;4.788;2023-07-20T02:16:23;5.18;;;2.85;;
47219;SDS011;32961;51.936;4.788;2023-07-20T02:18:52;4.80;;;2.70;;
47219;SDS011;32961;51.936;4.788;2023-07-20T02:21:23;4.15;;;3.20;;
47219;SDS011;32961;51.936;4.788;2023-07-20T02:23:52;4.55;;;2.67;;
47219;SDS011;32961;51.936;4.788;2023-07-20T02:26:20;4.50;;;2.50;;
47219;SDS011;32961;51.936;4.788;2023-07-20T02:28:48;3.22;;;2.50;;
47219;SDS011;32961;51.936;4.788;2023-07-20T02:31:16;3.25;;;2.53;;
47219;SDS011;32961;51.936;4.788;2023-07-20T02:33:44;4.10;;;2.67;;
47219;SDS011;32961;51.936;4.788;2023-07-20T02:36:12;4.10;;;2.33;;
47219;SDS011;32961;51.936;4.788;2023-07-20T02:38:41;4.18;;;2.70;;
47219;SDS011;32961;51.936;4.788;2023-07-20T02:41:11;2.30;;;2.05;;
47219;SDS011;32961;51.936;4.788;2023-07-20T02:43:39;3.17;;;2.40;;
47219;SDS011;32961;51.936;4.788;2023-07-20T02:46:07;2.55;;;2.22;;
47219;SDS011;32961;51.936;4.788;2023-07-20T02:48:35;3.15;;;2.50;;
47219;SDS011;32961;51.936;4.788;2023-07-20T02:51:03;3.20;;;2.30;;
47219;SDS011;32961;51.936;4.788;2023-07-20T02:53:30;3.65;;;2.53;;
47219;SDS011;32961;51.936;4.788;2023-07-20T02:55:58;3.40;;;2.92;;
47219;SDS011;32961;51.936;4.788;2023-07-20T02:58:28;7.35;;;3.30;;
47219;SDS011;32961;51.936;4.788;2023-07-20T03:00:55;4.40;;;3.28;;
47219;SDS011;32961;51.936;4.788;2023-07-20T03:03:23;4.18;;;3.33;;
47219;SDS011;32961;51.936;4.788;2023-07-20T03:05:51;4.70;;;2.80;;
47219;SDS011;32961;51.936;4.788;2023-07-20T03:08:21;4.28;;;2.95;;
47219;SDS011;32961;51.936;4.788;2023-07-20T03:10:48;2.72;;;2.45;;
47219;SDS011;32961;51.936;4.788;2023-07-20T03:13:16;4.20;;;2.40;;
47219;SDS011;32961;51.936;4.788;2023-07-20T03:15:45;3.30;;;2.78;;
47219;SDS011;32961;51.936;4.788;2023-07-20T03:18:13;4.10;;;3.20;;
47219;SDS011;32961;51.936;4.788;2023-07-20T03:20:41;4.50;;;3.83;;
47219;SDS011;32961;51.936;4.788;2023-07-20T03:23:09;5.82;;;4.03;;
47219;SDS011;32961;51.936;4.788;2023-07-20T03:25:37;5.63;;;4.63;;
47219;SDS011;32961;51.936;4.788;2023-07-20T03:28:05;5.65;;;4.78;;
47219;SDS011;32961;51.936;4.788;2023-07-20T03:30:33;5.97;;;4.75;;
47219;SDS011;32961;51.936;4.788;2023-07-20T03:33:03;8.07;;;5.25;;
47219;SDS011;32961;51.936;4.788;2023-07-20T03:35:31;6.10;;;5.28;;
47219;SDS011;32961;51.936;4.788;2023-07-20T03:37:59;6.20;;;5.43;;
47219;SDS011;32961;51.936;4.788;2023-07-20T03:40:26;6.95;;;5.20;;
47219;SDS011;32961;51.936;4.788;2023-07-20T03:42:54;8.80;;;5.43;;
47219;SDS011;32961;51.936;4.788;2023-07-20T03:45:22;7.60;;;5.13;;
47219;SDS011;32961;51.936;4.788;2023-07-20T03:47:50;5.03;;;4.60;;
47219;SDS011;32961;51.936;4.788;2023-07-20T03:50:20;8.10;;;5.53;;
47219;SDS011;32961;51.936;4.788;2023-07-20T03:52:48;9.40;;;4.97;;
47219;SDS011;32961;51.936;4.788;2023-07-20T03:55:15;7.22;;;5.03;;
47219;SDS011;32961;51.936;4.788;2023-07-20T03:57:43;6.20;;;5.05;;
47219;SDS011;32961;51.936;4.788;2023-07-20T04:00:12;6.82;;;5.43;;
47219;SDS011;32961;51.936;4.788;2023-07-20T04:02:41;8.02;;;5.40;;
47219;SDS011;32961;51.936;4.788;2023-07-20T04:05:09;6.68;;;4.90;;
47219;SDS011;32961;51.936;4.788;2023-07-20T04:07:39;6.55;;;5.20;;
47219;SDS011;32961;51.936;4.788;2023-07-20T04:10:07;7.25;;;4.72;;
47219;SDS011;32961;51.936;4.788;2023-07-20T04:12:35;7.22;;;5.35;;
47219;SDS011;32961;51.936;4.788;2023-07-20T04:15:04;5.53;;;4.72;;
47219;SDS011;32961;51.936;4.788;2023-07-20T04:17:32;5.85;;;4.68;;
47219;SDS011;32961;51.936;4.788;2023-07-20T04:20:00;9.05;;;5.68;;
47219;SDS011;32961;51.936;4.788;2023-07-20T04:22:28;8.07;;;5.10;;
47219;SDS011;32961;51.936;4.788;2023-07-20T04:24:58;6.95;;;5.55;;
47219;SDS011;32961;51.936;4.788;2023-07-20T04:27:26;7.43;;;5.50;;
47219;SDS011;32961;51.936;4.788;2023-07-20T04:29:53;7.72;;;5.30;;
47219;SDS011;32961;51.936;4.788;2023-07-20T04:32:21;8.10;;;5.18;;
47219;SDS011;32961;51.936;4.788;2023-07-20T04:34:49;9.38;;;5.65;;
47219;SDS011;32961;51.936;4.788;2023-07-20T04:37:17;7.97;;;6.15;;
47219;SDS011;32961;51.936;4.788;2023-07-20T04:39:45;6.72;;;5.05;;
47219;SDS011;32961;51.936;4.788;2023-07-20T04:42:14;9.32;;;5.60;;
47219;SDS011;32961;51.936;4.788;2023-07-20T04:44:42;6.60;;;5.38;;
47219;SDS011;32961;51.936;4.788;2023-07-20T04:47:10;7.97;;;5.32;;
47219;SDS011;32961;51.936;4.788;2023-07-20T04:49:38;6.35;;;5.05;;
47219;SDS011;32961;51.936;4.788;2023-07-20T04:52:06;6.13;;;4.82;;
47219;SDS011;32961;51.936;4.788;2023-07-20T04:54:35;7.63;;;5.53;;
47219;SDS011;32961;51.936;4.788;2023-07-20T04:57:03;7.00;;;5.22;;
47219;SDS011;32961;51.936;4.788;2023-07-20T04:59:38;9.25;;;5.53;;
47219;SDS011;32961;51.936;4.788;2023-07-20T05:02:06;5.57;;;4.65;;
47219;SDS011;32961;51.936;4.788;2023-07-20T05:04:34;6.63;;;5.45;;
47219;SDS011;32961;51.936;4.788;2023-07-20T05:07:04;6.03;;;5.20;;
47219;SDS011;32961;51.936;4.788;2023-07-20T05:09:33;5.93;;;4.70;;
47219;SDS011;32961;51.936;4.788;2023-07-20T05:12:00;6.10;;;4.65;;
47219;SDS011;32961;51.936;4.788;2023-07-20T05:14:28;9.55;;;4.13;;
47219;SDS011;32961;51.936;4.788;2023-07-20T05:16:58;5.40;;;4.40;;
47219;SDS011;32961;51.936;4.788;2023-07-20T05:19:26;8.10;;;5.18;;
47219;SDS011;32961;51.936;4.788;2023-07-20T05:21:53;5.93;;;4.57;;
47219;SDS011;32961;51.936;4.788;2023-07-20T05:24:21;6.35;;;4.28;;
47219;SDS011;32961;51.936;4.788;2023-07-20T05:26:49;6.25;;;4.30;;
47219;SDS011;32961;51.936;4.788;2023-07-20T05:29:17;7.47;;;4.25;;
47219;SDS011;32961;51.936;4.788;2023-07-20T05:31:45;5.22;;;3.85;;
47219;SDS011;32961;51.936;4.788;2023-07-20T05:34:14;5.63;;;4.25;;
47219;SDS011;32961;51.936;4.788;2023-07-20T05:36:42;4.53;;;4.07;;
47219;SDS011;32961;51.936;4.788;2023-07-20T05:39:10;7.15;;;4.28;;
47219;SDS011;32961;51.936;4.788;2023-07-20T05:41:37;5.72;;;3.90;;
47219;SDS011;32961;51.936;4.788;2023-07-20T05:44:05;5.82;;;4.13;;
47219;SDS011;32961;51.936;4.788;2023-07-20T05:46:33;5.30;;;3.60;;
47219;SDS011;32961;51.936;4.788;2023-07-20T05:49:22;5.35;;;3.83;;
47219;SDS011;32961;51.936;4.788;2023-07-20T05:51:49;4.03;;;3.60;;
47219;SDS011;32961;51.936;4.788;2023-07-20T05:54:17;4.28;;;3.42;;
47219;SDS011;32961;51.936;4.788;2023-07-20T05:56:45;5.60;;;3.42;;
47219;SDS011;32961;51.936;4.788;2023-07-20T05:59:13;4.18;;;3.40;;
47219;SDS011;32961;51.936;4.788;2023-07-20T06:01:42;5.38;;;2.63;;
47219;SDS011;32961;51.936;4.788;2023-07-20T06:04:11;4.45;;;2.53;;
47219;SDS011;32961;51.936;4.788;2023-07-20T06:06:40;4.18;;;2.22;;
47219;SDS011;32961;51.936;4.788;2023-07-20T06:09:08;4.07;;;2.25;;
47219;SDS011;32961;51.936;4.788;2023-07-20T06:11:38;4.72;;;2.33;;
47219;SDS011;32961;51.936;4.788;2023-07-20T06:14:06;3.75;;;2.20;;
47219;SDS011;32961;51.936;4.788;2023-07-20T06:16:34;3.30;;;2.20;;
47219;SDS011;32961;51.936;4.788;2023-07-20T06:19:02;2.88;;;2.58;;
47219;SDS011;32961;51.936;4.788;2023-07-20T06:21:30;4.70;;;2.30;;
47219;SDS011;32961;51.936;4.788;2023-07-20T06:23:59;4.50;;;2.42;;
47219;SDS011;32961;51.936;4.788;2023-07-20T06:26:27;4.00;;;2.38;;
47219;SDS011;32961;51.936;4.788;2023-07-20T06:28:56;3.75;;;2.10;;
47219;SDS011;32961;51.936;4.788;2023-07-20T06:31:24;3.83;;;2.30;;
47219;SDS011;32961;51.936;4.788;2023-07-20T06:33:52;2.78;;;2.10;;
47219;SDS011;32961;51.936;4.788;2023-07-20T06:36:20;4.18;;;2.88;;
47219;SDS011;32961;51.936;4.788;2023-07-20T06:38:48;3.53;;;2.20;;
47219;SDS011;32961;51.936;4.788;2023-07-20T06:41:20;3.17;;;2.35;;
47219;SDS011;32961;51.936;4.788;2023-07-20T06:43:51;4.30;;;2.90;;
47219;SDS011;32961;51.936;4.788;2023-07-20T06:46:24;2.38;;;2.17;;
47219;SDS011;32961;51.936;4.788;2023-07-20T06:48:53;6.03;;;2.00;;
47219;SDS011;32961;51.936;4.788;2023-07-20T06:51:24;4.38;;;2.22;;
47219;SDS011;32961;51.936;4.788;2023-07-20T06:53:52;3.38;;;2.25;;
47219;SDS011;32961;51.936;4.788;2023-07-20T06:56:21;4.22;;;2.40;;
47219;SDS011;32961;51.936;4.788;2023-07-20T06:58:51;2.88;;;2.25;;
47219;SDS011;32961;51.936;4.788;2023-07-20T07:01:19;3.45;;;2.08;;
47219;SDS011;32961;51.936;4.788;2023-07-20T07:03:49;5.03;;;2.25;;
47219;SDS011;32961;51.936;4.788;2023-07-20T07:06:21;2.45;;;1.95;;
47219;SDS011;32961;51.936;4.788;2023-07-20T07:08:50;4.18;;;2.00;;
47219;SDS011;32961;51.936;4.788;2023-07-20T07:11:18;4.82;;;2.28;;
47219;SDS011;32961;51.936;4.788;2023-07-20T07:13:47;2.78;;;2.00;;
47219;SDS011;32961;51.936;4.788;2023-07-20T07:16:17;6.25;;;3.00;;
47219;SDS011;32961;51.936;4.788;2023-07-20T07:18:46;4.47;;;2.00;;
47219;SDS011;32961;51.936;4.788;2023-07-20T07:21:14;5.28;;;2.00;;
47219;SDS011;32961;51.936;4.788;2023-07-20T07:23:42;1.85;;;1.33;;
47219;SDS011;32961;51.936;4.788;2023-07-20T07:26:10;4.00;;;2.10;;
47219;SDS011;32961;51.936;4.788;2023-07-20T07:28:38;4.10;;;1.95;;
47219;SDS011;32961;51.936;4.788;2023-07-20T07:31:07;2.03;;;1.70;;
47219;SDS011;32961;51.936;4.788;2023-07-20T07:33:36;3.90;;;1.23;;
47219;SDS011;32961;51.936;4.788;2023-07-20T07:36:04;2.95;;;1.15;;
47219;SDS011;32961;51.936;4.788;2023-07-20T07:38:32;2.42;;;1.30;;
47219;SDS011;32961;51.936;4.788;2023-07-20T07:41:20;1.73;;;1.00;;
47219;SDS011;32961;51.936;4.788;2023-07-20T07:43:48;3.92;;;1.13;;
47219;SDS011;32961;51.936;4.788;2023-07-20T07:46:18;2.67;;;1.00;;
47219;SDS011;32961;51.936;4.788;2023-07-20T07:48:46;2.38;;;0.80;;
47219;SDS011;32961;51.936;4.788;2023-07-20T07:51:15;2.17;;;0.90;;
47219;SDS011;32961;51.936;4.788;2023-07-20T07:53:42;1.10;;;0.80;;
47219;SDS011;32961;51.936;4.788;2023-07-20T07:56:11;1.85;;;0.93;;
47219;SDS011;32961;51.936;4.788;2023-07-20T07:58:38;1.65;;;0.70;;
47219;SDS011;32961;51.936;4.788;2023-07-20T08:01:06;3.78;;;1.67;;
47219;SDS011;32961;51.936;4.788;2023-07-20T08:03:36;2.75;;;0.90;;
47219;SDS011;32961;51.936;4.788;2023-07-20T08:06:04;1.48;;;0.60;;
47219;SDS011;32961;51.936;4.788;2023-07-20T08:08:32;1.50;;;0.63;;
47219;SDS011;32961;51.936;4.788;2023-07-20T08:11:00;2.85;;;0.93;;
47219;SDS011;32961;51.936;4.788;2023-07-20T08:13:33;2.05;;;1.20;;
47219;SDS011;32961;51.936;4.788;2023-07-20T08:16:01;1.35;;;0.55;;
47219;SDS011;32961;51.936;4.788;2023-07-20T08:18:29;1.27;;;0.77;;
47219;SDS011;32961;51.936;4.788;2023-07-20T08:20:59;1.42;;;0.85;;
47219;SDS011;32961;51.936;4.788;2023-07-20T08:23:27;2.25;;;0.70;;
47219;SDS011;32961;51.936;4.788;2023-07-20T08:25:55;3.17;;;0.90;;
47219;SDS011;32961;51.936;4.788;2023-07-20T08:28:23;2.10;;;0.85;;
47219;SDS011;32961;51.936;4.788;2023-07-20T08:30:52;1.13;;;0.55;;
47219;SDS011;32961;51.936;4.788;2023-07-20T08:33:20;1.13;;;0.80;;
47219;SDS011;32961;51.936;4.788;2023-07-20T08:35:49;2.45;;;0.75;;
47219;SDS011;32961;51.936;4.788;2023-07-20T08:38:19;1.58;;;0.90;;
47219;SDS011;32961;51.936;4.788;2023-07-20T08:40:46;1.10;;;0.80;;
47219;SDS011;32961;51.936;4.788;2023-07-20T08:43:14;1.98;;;0.80;;
47219;SDS011;32961;51.936;4.788;2023-07-20T08:45:44;1.48;;;0.90;;
47219;SDS011;32961;51.936;4.788;2023-07-20T08:48:16;1.55;;;0.90;;
47219;SDS011;32961;51.936;4.788;2023-07-20T08:50:46;1.63;;;0.80;;
47219;SDS011;32961;51.936;4.788;2023-07-20T08:53:16;1.20;;;1.02;;
47219;SDS011;32961;51.936;4.788;2023-07-20T08:55:49;0.85;;;0.80;;
47219;SDS011;32961;51.936;4.788;2023-07-20T08:58:18;1.60;;;0.90;;
47219;SDS011;32961;51.936;4.788;2023-07-20T09:00:46;3.90;;;1.33;;
47219;SDS011;32961;51.936;4.788;2023-07-20T09:03:17;3.85;;;0.80;;
47219;SDS011;32961;51.936;4.788;2023-07-20T09:05:46;1.65;;;0.90;;
47219;SDS011;32961;51.936;4.788;2023-07-20T09:08:13;1.58;;;0.82;;
47219;SDS011;32961;51.936;4.788;2023-07-20T09:10:43;7.85;;;1.10;;
47219;SDS011;32961;51.936;4.788;2023-07-20T09:13:13;1.08;;;0.80;;
47219;SDS011;32961;51.936;4.788;2023-07-20T09:15:46;2.03;;;0.88;;
47219;SDS011;32961;51.936;4.788;2023-07-20T09:18:23;2.15;;;1.17;;
47219;SDS011;32961;51.936;4.788;2023-07-20T09:20:51;2.45;;;0.98;;
47219;SDS011;32961;51.936;4.788;2023-07-20T09:23:20;2.67;;;0.95;;
47219;SDS011;32961;51.936;4.788;2023-07-20T09:25:59;2.85;;;0.98;;
47219;SDS011;32961;51.936;4.788;2023-07-20T09:28:27;2.45;;;0.90;;
47219;SDS011;32961;51.936;4.788;2023-07-20T09:30:55;1.50;;;0.93;;
47219;SDS011;32961;51.936;4.788;2023-07-20T09:33:24;0.52;;;0.52;;
47219;SDS011;32961;51.936;4.788;2023-07-20T09:35:53;0.93;;;0.70;;
47219;SDS011;32961;51.936;4.788;2023-07-20T09:38:24;1.25;;;0.57;;
47219;SDS011;32961;51.936;4.788;2023-07-20T09:40:54;2.58;;;0.75;;
47219;SDS011;32961;51.936;4.788;2023-07-20T09:43:27;0.77;;;0.60;;
47219;SDS011;32961;51.936;4.788;2023-07-20T09:45:57;1.58;;;0.80;;
47219;SDS011;32961;51.936;4.788;2023-07-20T09:48:25;2.08;;;1.17;;
47219;SDS011;32961;51.936;4.788;2023-07-20T09:50:59;0.93;;;0.80;;
47219;SDS011;32961;51.936;4.788;2023-07-20T09:53:29;0.65;;;0.63;;
47219;SDS011;32961;51.936;4.788;2023-07-20T09:55:58;2.70;;;1.20;;
47219;SDS011;32961;51.936;4.788;2023-07-20T09:58:28;1.88;;;0.70;;
47219;SDS011;32961;51.936;4.788;2023-07-20T10:00:57;4.40;;;1.13;;
47219;SDS011;32961;51.936;4.788;2023-07-20T10:03:31;2.92;;;0.70;;
47219;SDS011;32961;51.936;4.788;2023-07-20T10:06:02;5.10;;;0.85;;
47219;SDS011;32961;51.936;4.788;2023-07-20T10:08:34;1.77;;;0.65;;
47219;SDS011;32961;51.936;4.788;2023-07-20T10:11:09;1.60;;;0.80;;
47219;SDS011;32961;51.936;4.788;2023-07-20T10:13:41;0.95;;;0.77;;
47219;SDS011;32961;51.936;4.788;2023-07-20T10:16:12;1.40;;;0.90;;
47219;SDS011;32961;51.936;4.788;2023-07-20T10:18:50;2.83;;;0.90;;
47219;SDS011;32961;51.936;4.788;2023-07-20T10:21:22;3.25;;;1.00;;
47219;SDS011;32961;51.936;4.788;2023-07-20T10:23:54;3.83;;;1.15;;
47219;SDS011;32961;51.936;4.788;2023-07-20T10:26:24;0.98;;;0.88;;
47219;SDS011;32961;51.936;4.788;2023-07-20T10:28:54;2.30;;;0.93;;
47219;SDS011;32961;51.936;4.788;2023-07-20T10:31:24;1.35;;;1.00;;
47219;SDS011;32961;51.936;4.788;2023-07-20T10:33:56;1.67;;;1.00;;
47219;SDS011;32961;51.936;4.788;2023-07-20T10:36:25;3.63;;;1.00;;
47219;SDS011;32961;51.936;4.788;2023-07-20T10:38:57;5.88;;;0.90;;
47219;SDS011;32961;51.936;4.788;2023-07-20T10:41:27;3.15;;;0.90;;
47219;SDS011;32961;51.936;4.788;2023-07-20T10:44:02;1.65;;;0.88;;
47219;SDS011;32961;51.936;4.788;2023-07-20T10:46:34;5.00;;;0.98;;
47219;SDS011;32961;51.936;4.788;2023-07-20T10:49:10;1.98;;;1.00;;
47219;SDS011;32961;51.936;4.788;2023-07-20T10:51:39;2.00;;;1.20;;
47219;SDS011;32961;51.936;4.788;2023-07-20T10:54:10;1.35;;;0.90;;
47219;SDS011;32961;51.936;4.788;2023-07-20T11:02:41;2.42;;;1.10;;
47219;SDS011;32961;51.936;4.788;2023-07-20T11:08:04;1.40;;;1.15;;
47219;SDS011;32961;51.936;4.788;2023-07-20T11:10:36;1.50;;;0.88;;
47219;SDS011;32961;51.936;4.788;2023-07-20T11:13:20;1.80;;;0.85;;
47219;SDS011;32961;51.936;4.788;2023-07-20T11:16:04;3.55;;;1.20;;
47219;SDS011;32961;51.936;4.788;2023-07-20T11:18:33;2.15;;;0.95;;
47219;SDS011;32961;51.936;4.788;2023-07-20T11:21:07;1.42;;;0.90;;
47219;SDS011;32961;51.936;4.788;2023-07-20T11:23:37;2.58;;;1.13;;
47219;SDS011;32961;51.936;4.788;2023-07-20T11:26:06;3.08;;;1.30;;
47219;SDS011;32961;51.936;4.788;2023-07-20T11:28:37;4.00;;;1.30;;
47219;SDS011;32961;51.936;4.788;2023-07-20T11:31:06;2.35;;;1.13;;
47219;SDS011;32961;51.936;4.788;2023-07-20T11:33:34;1.33;;;0.90;;
47219;SDS011;32961;51.936;4.788;2023-07-20T11:36:02;2.80;;;1.02;;
47219;SDS011;32961;51.936;4.788;2023-07-20T11:38:51;4.35;;;1.20;;
47219;SDS011;32961;51.936;4.788;2023-07-20T11:41:20;1.13;;;0.77;;
47219;SDS011;32961;51.936;4.788;2023-07-20T11:43:48;2.88;;;1.05;;
47219;SDS011;32961;51.936;4.788;2023-07-20T11:46:17;1.75;;;1.10;;
47219;SDS011;32961;51.936;4.788;2023-07-20T11:48:46;3.05;;;1.23;;
47219;SDS011;32961;51.936;4.788;2023-07-20T11:51:14;3.90;;;1.10;;
47219;SDS011;32961;51.936;4.788;2023-07-20T11:53:42;2.22;;;1.05;;
47219;SDS011;32961;51.936;4.788;2023-07-20T11:56:12;1.90;;;1.10;;
47219;SDS011;32961;51.936;4.788;2023-07-20T11:58:43;2.08;;;1.00;;
47219;SDS011;32961;51.936;4.788;2023-07-20T12:01:11;1.77;;;1.05;;
47219;SDS011;32961;51.936;4.788;2023-07-20T12:03:42;2.17;;;1.20;;
47219;SDS011;32961;51.936;4.788;2023-07-20T12:06:11;33.33;;;4.05;;
47219;SDS011;32961;51.936;4.788;2023-07-20T12:08:39;4.25;;;1.55;;
47219;SDS011;32961;51.936;4.788;2023-07-20T12:11:07;1.90;;;1.08;;
47219;SDS011;32961;51.936;4.788;2023-07-20T12:13:36;55.33;;;7.72;;
47219;SDS011;32961;51.936;4.788;2023-07-20T12:16:11;12.55;;;3.53;;
47219;SDS011;32961;51.936;4.788;2023-07-20T12:18:43;8.88;;;2.42;;
47219;SDS011;32961;51.936;4.788;2023-07-20T12:21:11;69.40;;;9.63;;
47219;SDS011;32961;51.936;4.788;2023-07-20T12:23:39;32.78;;;4.32;;
47219;SDS011;32961;51.936;4.788;2023-07-20T12:26:08;35.40;;;5.00;;
47219;SDS011;32961;51.936;4.788;2023-07-20T12:28:39;8.75;;;2.80;;
47219;SDS011;32961;51.936;4.788;2023-07-20T12:31:08;11.30;;;1.85;;
47219;SDS011;32961;51.936;4.788;2023-07-20T12:33:37;62.95;;;5.15;;
47219;SDS011;32961;51.936;4.788;2023-07-20T12:36:06;7.95;;;1.55;;
47219;SDS011;32961;51.936;4.788;2023-07-20T12:38:34;17.77;;;2.60;;
47219;SDS011;32961;51.936;4.788;2023-07-20T12:41:02;4.22;;;1.30;;
47219;SDS011;32961;51.936;4.788;2023-07-20T12:43:31;2.35;;;1.13;;
47219;SDS011;32961;51.936;4.788;2023-07-20T12:45:59;18.80;;;2.10;;
47219;SDS011;32961;51.936;4.788;2023-07-20T12:48:27;4.47;;;1.55;;
47219;SDS011;32961;51.936;4.788;2023-07-20T12:50:55;3.25;;;0.98;;
47219;SDS011;32961;51.936;4.788;2023-07-20T12:53:24;2.47;;;1.30;;
47219;SDS011;32961;51.936;4.788;2023-07-20T12:55:52;23.60;;;2.25;;
47219;SDS011;32961;51.936;4.788;2023-07-20T12:58:20;6.70;;;1.30;;
47219;SDS011;32961;51.936;4.788;2023-07-20T13:00:48;2.80;;;1.65;;
47219;SDS011;32961;51.936;4.788;2023-07-20T13:03:16;110.30;;;12.18;;
47219;SDS011;32961;51.936;4.788;2023-07-20T13:05:48;5.93;;;1.95;;
47219;SDS011;32961;51.936;4.788;2023-07-20T13:08:19;11.57;;;2.28;;
47219;SDS011;32961;51.936;4.788;2023-07-20T13:10:48;3.33;;;1.10;;
47219;SDS011;32961;51.936;4.788;2023-07-20T13:13:16;43.58;;;5.20;;
47219;SDS011;32961;51.936;4.788;2023-07-20T13:15:44;159.07;;;22.25;;
47219;SDS011;32961;51.936;4.788;2023-07-20T13:18:14;11.93;;;1.50;;
47219;SDS011;32961;51.936;4.788;2023-07-20T13:20:42;18.20;;;2.58;;
47219;SDS011;32961;51.936;4.788;2023-07-20T13:23:10;38.60;;;6.22;;
47219;SDS011;32961;51.936;4.788;2023-07-20T13:25:37;6.95;;;1.85;;
47219;SDS011;32961;51.936;4.788;2023-07-20T13:28:07;11.43;;;3.13;;
47219;SDS011;32961;51.936;4.788;2023-07-20T13:30:35;4.07;;;1.30;;
47219;SDS011;32961;51.936;4.788;2023-07-20T13:33:06;5.20;;;1.30;;
47219;SDS011;32961;51.936;4.788;2023-07-20T13:35:34;3.17;;;1.30;;
47219;SDS011;32961;51.936;4.788;2023-07-20T13:38:05;3.95;;;1.20;;
47219;SDS011;32961;51.936;4.788;2023-07-20T13:40:32;2.40;;;0.95;;
47219;SDS011;32961;51.936;4.788;2023-07-20T13:43:01;1.55;;;0.80;;
47219;SDS011;32961;51.936;4.788;2023-07-20T13:45:30;2.15;;;1.23;;
47219;SDS011;32961;51.936;4.788;2023-07-20T13:47:58;3.10;;;1.10;;
47219;SDS011;32961;51.936;4.788;2023-07-20T13:50:28;2.35;;;1.15;;
47219;SDS011;32961;51.936;4.788;2023-07-20T13:53:07;2.65;;;1.17;;
47219;SDS011;32961;51.936;4.788;2023-07-20T13:55:38;1.17;;;1.00;;
47219;SDS011;32961;51.936;4.788;2023-07-20T13:58:09;0.93;;;0.90;;
47219;SDS011;32961;51.936;4.788;2023-07-20T14:00:40;4.32;;;1.08;;
47219;SDS011;32961;51.936;4.788;2023-07-20T14:03:08;1.95;;;1.10;;
47219;SDS011;32961;51.936;4.788;2023-07-20T14:05:39;2.75;;;1.00;;
47219;SDS011;32961;51.936;4.788;2023-07-20T14:08:10;2.20;;;0.98;;
47219;SDS011;32961;51.936;4.788;2023-07-20T14:10:37;3.15;;;1.00;;
47219;SDS011;32961;51.936;4.788;2023-07-20T14:13:08;3.28;;;1.50;;
47219;SDS011;32961;51.936;4.788;2023-07-20T14:15:36;1.30;;;1.00;;
47219;SDS011;32961;51.936;4.788;2023-07-20T14:18:06;1.75;;;1.00;;
47219;SDS011;32961;51.936;4.788;2023-07-20T14:20:34;1.42;;;0.98;;
47219;SDS011;32961;51.936;4.788;2023-07-20T14:23:04;2.67;;;0.95;;
47219;SDS011;32961;51.936;4.788;2023-07-20T14:25:32;3.10;;;0.88;;
47219;SDS011;32961;51.936;4.788;2023-07-20T14:28:03;4.25;;;0.80;;
47219;SDS011;32961;51.936;4.788;2023-07-20T14:30:31;4.45;;;1.15;;
47219;SDS011;32961;51.936;4.788;2023-07-20T14:32:59;6.68;;;1.10;;
47219;SDS011;32961;51.936;4.788;2023-07-20T14:35:28;4.75;;;1.00;;
47219;SDS011;32961;51.936;4.788;2023-07-20T14:37:56;2.58;;;1.20;;
47219;SDS011;32961;51.936;4.788;2023-07-20T14:40:24;2.10;;;0.90;;
47219;SDS011;32961;51.936;4.788;2023-07-20T14:42:52;2.20;;;1.02;;
47219;SDS011;32961;51.936;4.788;2023-07-20T14:45:20;2.20;;;1.00;;
47219;SDS011;32961;51.936;4.788;2023-07-20T14:47:47;25.73;;;2.80;;
47219;SDS011;32961;51.936;4.788;2023-07-20T14:50:20;13.65;;;2.88;;
47219;SDS011;32961;51.936;4.788;2023-07-20T14:52:50;10.98;;;1.98;;
47219;SDS011;32961;51.936;4.788;2023-07-20T14:55:17;2.35;;;0.93;;
47219;SDS011;32961;51.936;4.788;2023-07-20T14:57:45;2.35;;;0.88;;
47219;SDS011;32961;51.936;4.788;2023-07-20T15:00:15;1.52;;;0.80;;
47219;SDS011;32961;51.936;4.788;2023-07-20T15:02:43;3.58;;;0.95;;
47219;SDS011;32961;51.936;4.788;2023-07-20T15:05:11;2.85;;;0.82;;
47219;SDS011;32961;51.936;4.788;2023-07-20T15:07:39;4.57;;;0.90;;